createdAt,value
2023-05-22T00:00:41.280Z,456.00
2023-05-22T00:01:41.056Z,454.00
2023-05-22T00:02:41.330Z,454.00
2023-05-22T00:03:41.024Z,454.00
2023-05-22T00:04:41.098Z,453.00
2023-05-22T00:05:41.111Z,452.00
2023-05-22T00:06:41.015Z,453.00
2023-05-22T00:07:41.414Z,455.00
2023-05-22T00:08:40.984Z,458.00
2023-05-22T00:09:41.005Z,458.00
2023-05-22T00:10:41.169Z,457.00
2023-05-22T00:11:40.984Z,455.00
2023-05-22T00:12:41.344Z,457.00
2023-05-22T00:13:41.013Z,458.00
2023-05-22T00:14:40.940Z,458.00
2023-05-22T00:15:40.936Z,457.00
2023-05-22T00:16:40.961Z,457.00
2023-05-22T00:17:41.338Z,456.00
2023-05-22T00:18:40.912Z,458.00
2023-05-22T00:19:40.937Z,457.00
2023-05-22T00:20:41.167Z,459.00
2023-05-22T00:21:40.890Z,459.00
2023-05-22T00:22:40.933Z,458.00
2023-05-22T00:23:40.883Z,457.00
2023-05-22T00:24:40.891Z,458.00
2023-05-22T00:25:40.868Z,458.00
2023-05-22T00:26:40.840Z,459.00
2023-05-22T00:27:40.879Z,458.00
2023-05-22T00:28:40.885Z,462.00
2023-05-22T00:29:40.924Z,462.00
2023-05-22T00:30:41.258Z,462.00
2023-05-22T00:31:40.990Z,465.00
2023-05-22T00:32:41.009Z,461.00
2023-05-22T00:33:40.989Z,461.00
2023-05-22T00:34:41.075Z,460.00
2023-05-22T00:35:41.043Z,459.00
2023-05-22T00:36:41.093Z,460.00
2023-05-22T00:37:41.083Z,461.00
2023-05-22T00:38:41.139Z,460.00
2023-05-22T00:39:41.117Z,460.00
2023-05-22T00:40:41.414Z,460.00
2023-05-22T00:41:41.180Z,459.00
2023-05-22T00:42:41.232Z,460.00
2023-05-22T00:43:41.225Z,458.00
2023-05-22T00:44:41.245Z,458.00
2023-05-22T00:45:41.267Z,459.00
2023-05-22T00:46:41.381Z,459.00
2023-05-22T00:47:41.387Z,461.00
2023-05-22T00:48:41.383Z,461.00
2023-05-22T00:49:41.376Z,462.00
2023-05-22T00:50:41.500Z,462.00
2023-05-22T00:51:41.384Z,463.00
2023-05-22T00:52:41.422Z,463.00
2023-05-22T00:53:41.441Z,462.00
2023-05-22T00:54:41.484Z,460.00
2023-05-22T00:55:41.499Z,458.00
2023-05-22T00:56:41.530Z,458.00
2023-05-22T00:57:41.512Z,461.00
2023-05-22T00:58:41.529Z,461.00
2023-05-22T00:59:41.576Z,463.00
2023-05-22T01:00:41.748Z,463.00
2023-05-22T01:01:41.676Z,462.00
2023-05-22T01:02:41.723Z,461.00
2023-05-22T01:03:41.762Z,461.00
2023-05-22T01:04:41.643Z,460.00
2023-05-22T01:05:41.655Z,461.00
2023-05-22T01:06:41.666Z,461.00
2023-05-22T01:07:41.662Z,461.00
2023-05-22T01:08:41.676Z,463.00
2023-05-22T01:09:41.648Z,465.00
2023-05-22T01:10:41.987Z,467.00
2023-05-22T01:11:41.656Z,466.00
2023-05-22T01:12:41.686Z,466.00
2023-05-22T01:13:41.668Z,465.00
2023-05-22T01:14:41.669Z,465.00
2023-05-22T01:15:41.664Z,463.00
2023-05-22T01:16:41.833Z,463.00
2023-05-22T01:17:41.687Z,464.00
2023-05-22T01:18:41.676Z,466.00
2023-05-22T01:19:41.698Z,466.00
2023-05-22T01:20:41.773Z,467.00
2023-05-22T01:21:41.681Z,466.00
2023-05-22T01:22:41.675Z,467.00
2023-05-22T01:23:41.691Z,466.00
2023-05-22T01:24:41.672Z,466.00
2023-05-22T01:25:41.725Z,465.00
2023-05-22T01:26:41.724Z,465.00
2023-05-22T01:27:41.726Z,464.00
2023-05-22T01:28:41.756Z,467.00
2023-05-22T01:29:41.751Z,466.00
2023-05-22T01:30:41.754Z,467.00
2023-05-22T01:31:41.797Z,468.00
2023-05-22T01:32:41.771Z,469.00
2023-05-22T01:33:41.880Z,471.00
2023-05-22T01:34:41.749Z,471.00
2023-05-22T01:35:41.780Z,471.00
2023-05-22T01:36:41.779Z,470.00
2023-05-22T01:37:41.826Z,472.00
2023-05-22T01:38:41.817Z,472.00
2023-05-22T01:39:41.848Z,471.00
2023-05-22T01:40:41.878Z,471.00
2023-05-22T01:41:41.857Z,472.00
2023-05-22T01:42:41.900Z,472.00
2023-05-22T01:43:41.983Z,471.00
2023-05-22T01:44:41.914Z,470.00
2023-05-22T01:45:41.982Z,469.00
2023-05-22T01:46:41.953Z,469.00
2023-05-22T01:47:41.995Z,469.00
2023-05-22T01:48:41.974Z,470.00
2023-05-22T01:49:42.032Z,469.00
2023-05-22T01:50:42.204Z,470.00
2023-05-22T01:51:42.051Z,471.00
2023-05-22T01:52:42.091Z,470.00
2023-05-22T01:53:42.103Z,469.00
2023-05-22T01:54:42.119Z,469.00
2023-05-22T01:55:42.135Z,469.00
2023-05-22T01:56:42.138Z,469.00
2023-05-22T01:57:42.187Z,468.00
2023-05-22T01:58:42.188Z,466.00
2023-05-22T01:59:42.290Z,466.00
2023-05-22T02:00:42.357Z,468.00
2023-05-22T02:01:42.397Z,468.00
2023-05-22T02:02:42.331Z,468.00
2023-05-22T02:03:42.361Z,467.00
2023-05-22T02:04:42.332Z,469.00
2023-05-22T02:05:42.290Z,467.00
2023-05-22T02:06:42.314Z,466.00
2023-05-22T02:07:42.325Z,468.00
2023-05-22T02:08:42.314Z,470.00
2023-05-22T02:09:42.373Z,470.00
2023-05-22T02:10:42.392Z,471.00
2023-05-22T02:11:42.381Z,468.00
2023-05-22T02:12:42.377Z,468.00
2023-05-22T02:13:42.429Z,468.00
2023-05-22T02:14:42.424Z,468.00
2023-05-22T02:15:42.487Z,468.00
2023-05-22T02:16:42.461Z,470.00
2023-05-22T02:17:42.574Z,469.00
2023-05-22T02:18:42.541Z,467.00
2023-05-22T02:19:42.478Z,468.00
2023-05-22T02:20:42.498Z,467.00
2023-05-22T02:21:42.474Z,466.00
2023-05-22T02:22:42.498Z,465.00
2023-05-22T02:23:42.508Z,467.00
2023-05-22T02:24:42.510Z,470.00
2023-05-22T02:25:42.509Z,472.00
2023-05-22T02:26:42.527Z,469.00
2023-05-22T02:27:42.518Z,468.00
2023-05-22T02:28:42.536Z,468.00
2023-05-22T02:29:42.547Z,470.00
2023-05-22T02:30:42.549Z,468.00
2023-05-22T02:31:42.622Z,470.00
2023-05-22T02:32:42.595Z,469.00
2023-05-22T02:33:42.497Z,470.00
2023-05-22T02:34:42.490Z,472.00
2023-05-22T02:35:42.532Z,470.00
2023-05-22T02:36:42.489Z,469.00
2023-05-22T02:37:42.493Z,470.00
2023-05-22T02:38:42.458Z,471.00
2023-05-22T02:39:42.480Z,471.00
2023-05-22T02:40:42.568Z,472.00
2023-05-22T02:41:42.493Z,471.00
2023-05-22T02:42:42.503Z,471.00
2023-05-22T02:43:42.428Z,471.00
2023-05-22T02:44:42.479Z,471.00
2023-05-22T02:45:42.436Z,471.00
2023-05-22T02:46:42.506Z,470.00
2023-05-22T02:47:42.541Z,471.00
2023-05-22T02:48:42.473Z,471.00
2023-05-22T02:49:42.467Z,471.00
2023-05-22T02:50:42.444Z,471.00
2023-05-22T02:51:42.429Z,471.00
2023-05-22T02:52:42.500Z,472.00
2023-05-22T02:53:42.463Z,473.00
2023-05-22T02:54:42.468Z,475.00
2023-05-22T02:55:42.459Z,477.00
2023-05-22T02:56:42.466Z,476.00
2023-05-22T02:57:42.462Z,476.00
2023-05-22T02:58:42.481Z,475.00
2023-05-22T02:59:42.454Z,473.00
2023-05-22T03:00:42.456Z,473.00
2023-05-22T03:01:42.457Z,472.00
2023-05-22T03:02:42.523Z,471.00
2023-05-22T03:03:42.517Z,472.00
2023-05-22T03:04:42.417Z,472.00
2023-05-22T03:05:42.475Z,474.00
2023-05-22T03:06:42.411Z,476.00
2023-05-22T03:07:42.408Z,479.00
2023-05-22T03:08:42.435Z,481.00
2023-05-22T03:09:42.464Z,479.00
2023-05-22T03:10:42.415Z,481.00
2023-05-22T03:11:42.425Z,482.00
2023-05-22T03:12:42.411Z,482.00
2023-05-22T03:13:42.424Z,485.00
2023-05-22T03:14:42.421Z,484.00
2023-05-22T03:15:42.430Z,483.00
2023-05-22T03:16:42.413Z,483.00
2023-05-22T03:17:42.411Z,482.00
2023-05-22T03:18:42.408Z,481.00
2023-05-22T03:19:42.684Z,480.00
2023-05-22T03:20:42.382Z,480.00
2023-05-22T03:21:42.382Z,480.00
2023-05-22T03:22:42.365Z,480.00
2023-05-22T03:23:42.381Z,480.00
2023-05-22T03:24:42.383Z,480.00
2023-05-22T03:25:42.441Z,479.00
2023-05-22T03:26:42.369Z,479.00
2023-05-22T03:27:42.388Z,478.00
2023-05-22T03:28:42.416Z,478.00
2023-05-22T03:29:42.334Z,477.00
2023-05-22T03:30:42.370Z,476.00
2023-05-22T03:31:42.369Z,474.00
2023-05-22T03:32:42.363Z,475.00
2023-05-22T03:33:42.372Z,475.00
2023-05-22T03:34:42.348Z,477.00
2023-05-22T03:35:42.316Z,478.00
2023-05-22T03:36:42.318Z,479.00
2023-05-22T03:37:42.432Z,480.00
2023-05-22T03:38:42.346Z,481.00
2023-05-22T03:39:42.301Z,481.00
2023-05-22T03:40:42.367Z,479.00
2023-05-22T03:41:42.275Z,477.00
2023-05-22T03:42:42.297Z,477.00
2023-05-22T03:43:44.910Z,479.00
2023-05-22T03:44:42.278Z,476.00
2023-05-22T03:45:42.399Z,477.00
2023-05-22T03:46:42.244Z,477.00
2023-05-22T03:47:42.346Z,479.00
2023-05-22T03:48:42.270Z,478.00
2023-05-22T03:49:42.278Z,477.00
2023-05-22T03:50:42.298Z,476.00
2023-05-22T03:51:42.224Z,473.00
2023-05-22T03:52:42.228Z,472.00
2023-05-22T03:53:42.247Z,473.00
2023-05-22T03:54:42.209Z,473.00
2023-05-22T03:55:42.215Z,473.00
2023-05-22T03:56:42.231Z,472.00
2023-05-22T03:57:42.227Z,471.00
2023-05-22T03:58:42.189Z,470.00
2023-05-22T03:59:42.169Z,471.00
2023-05-22T04:00:42.173Z,471.00
2023-05-22T04:01:42.161Z,473.00
2023-05-22T04:02:42.258Z,475.00
2023-05-22T04:03:42.154Z,475.00
2023-05-22T04:04:42.168Z,477.00
2023-05-22T04:05:42.143Z,476.00
2023-05-22T04:06:42.136Z,474.00
2023-05-22T04:07:42.124Z,472.00
2023-05-22T04:08:42.099Z,475.00
2023-05-22T04:09:42.105Z,480.00
2023-05-22T04:10:42.115Z,478.00
2023-05-22T04:11:42.145Z,476.00
2023-05-22T04:12:42.079Z,475.00
2023-05-22T04:13:42.093Z,478.00
2023-05-22T04:14:42.073Z,476.00
2023-05-22T04:15:42.072Z,475.00
2023-05-22T04:16:42.055Z,475.00
2023-05-22T04:17:42.121Z,476.00
2023-05-22T04:18:42.030Z,473.00
2023-05-22T04:19:42.889Z,474.00
2023-05-22T04:20:42.123Z,472.00
2023-05-22T04:21:42.018Z,472.00
2023-05-22T04:22:42.048Z,473.00
2023-05-22T04:23:42.018Z,473.00
2023-05-22T04:24:42.005Z,475.00
2023-05-22T04:25:41.978Z,473.00
2023-05-22T04:26:42.682Z,474.00
2023-05-22T04:27:41.972Z,473.00
2023-05-22T04:28:41.959Z,476.00
2023-05-22T04:29:41.968Z,477.00
2023-05-22T04:30:42.122Z,478.00
2023-05-22T04:31:42.087Z,480.00
2023-05-22T04:32:41.944Z,482.00
2023-05-22T04:33:41.928Z,482.00
2023-05-22T04:34:41.889Z,480.00
2023-05-22T04:35:41.906Z,480.00
2023-05-22T04:36:41.913Z,480.00
2023-05-22T04:37:41.894Z,483.00
2023-05-22T04:38:41.860Z,482.00
2023-05-22T04:39:41.847Z,477.00
2023-05-22T04:40:41.982Z,480.00
2023-05-22T04:41:41.843Z,480.00
2023-05-22T04:42:41.847Z,482.00
2023-05-22T04:43:41.834Z,483.00
2023-05-22T04:44:41.851Z,484.00
2023-05-22T04:45:41.839Z,483.00
2023-05-22T04:46:41.844Z,482.00
2023-05-22T04:47:41.877Z,480.00
2023-05-22T04:48:41.817Z,476.00
2023-05-22T04:49:41.793Z,476.00
2023-05-22T04:50:42.043Z,477.00
2023-05-22T04:51:41.782Z,478.00
2023-05-22T04:52:41.770Z,478.00
2023-05-22T04:53:41.770Z,479.00
2023-05-22T04:54:41.757Z,480.00
2023-05-22T04:55:41.738Z,480.00
2023-05-22T04:56:41.749Z,480.00
2023-05-22T04:57:41.753Z,479.00
2023-05-22T04:58:41.713Z,481.00
2023-05-22T04:59:41.697Z,479.00
2023-05-22T05:00:42.023Z,479.00
2023-05-22T05:01:41.759Z,479.00
2023-05-22T05:02:41.980Z,481.00
2023-05-22T05:03:41.739Z,484.00
2023-05-22T05:04:41.664Z,488.00
2023-05-22T05:05:41.666Z,488.00
2023-05-22T05:06:41.674Z,489.00
2023-05-22T05:07:41.682Z,490.00
2023-05-22T05:08:41.649Z,492.00
2023-05-22T05:09:41.646Z,492.00
2023-05-22T05:10:41.839Z,494.00
2023-05-22T05:11:41.642Z,492.00
2023-05-22T05:12:41.636Z,493.00
2023-05-22T05:13:41.624Z,494.00
2023-05-22T05:14:41.632Z,494.00
2023-05-22T05:15:41.607Z,494.00
2023-05-22T05:16:41.621Z,492.00
2023-05-22T05:17:41.690Z,490.00
2023-05-22T05:18:41.590Z,492.00
2023-05-22T05:19:41.608Z,493.00
2023-05-22T05:20:41.686Z,492.00
2023-05-22T05:21:41.565Z,493.00
2023-05-22T05:22:41.582Z,493.00
2023-05-22T05:23:41.541Z,493.00
2023-05-22T05:24:41.549Z,494.00
2023-05-22T05:25:41.529Z,492.00
2023-05-22T05:26:41.503Z,493.00
2023-05-22T05:27:41.533Z,493.00
2023-05-22T05:28:41.529Z,494.00
2023-05-22T05:29:41.491Z,495.00
2023-05-22T05:30:41.732Z,496.00
2023-05-22T05:31:41.552Z,498.00
2023-05-22T05:32:41.547Z,500.00
2023-05-22T05:33:41.485Z,500.00
2023-05-22T05:34:41.525Z,498.00
2023-05-22T05:35:42.833Z,497.00
2023-05-22T05:36:41.422Z,496.00
2023-05-22T05:37:41.480Z,497.00
2023-05-22T05:38:41.454Z,500.00
2023-05-22T05:39:41.465Z,499.00
2023-05-22T05:40:41.541Z,502.00
2023-05-22T05:41:41.422Z,502.00
2023-05-22T05:42:41.482Z,502.00
2023-05-22T05:43:41.422Z,501.00
2023-05-22T05:44:41.369Z,506.00
2023-05-22T05:45:41.462Z,520.00
2023-05-22T05:46:41.494Z,580.00
2023-05-22T05:47:41.449Z,590.00
2023-05-22T05:48:41.389Z,601.00
2023-05-22T05:49:41.377Z,607.00
2023-05-22T05:50:41.536Z,617.00
2023-05-22T05:51:41.335Z,627.00
2023-05-22T05:52:41.384Z,639.00
2023-05-22T05:53:41.312Z,648.00
2023-05-22T05:54:41.337Z,655.00
2023-05-22T05:55:41.306Z,665.00
2023-05-22T05:56:41.303Z,713.00
2023-05-22T05:57:41.311Z,724.00
2023-05-22T05:58:41.292Z,749.00
2023-05-22T05:59:41.444Z,761.00
2023-05-22T06:00:41.429Z,760.00
2023-05-22T06:01:41.268Z,749.00
2023-05-22T06:02:41.313Z,765.00
2023-05-22T06:03:41.453Z,825.00
2023-05-22T06:04:41.261Z,895.00
2023-05-22T06:05:41.348Z,906.00
2023-05-22T06:06:41.219Z,926.00
2023-05-22T06:07:41.196Z,965.00
2023-05-22T06:08:41.230Z,996.00
2023-05-22T06:09:41.189Z,1063.00
2023-05-22T06:10:41.367Z,1098.00
2023-05-22T06:11:41.228Z,1151.00
2023-05-22T06:12:41.282Z,1177.00
2023-05-22T06:13:41.288Z,1202.00
2023-05-22T06:14:41.344Z,1238.00
2023-05-22T06:15:41.373Z,1265.00
2023-05-22T06:16:41.441Z,1282.00
2023-05-22T06:17:41.459Z,1305.00
2023-05-22T06:18:41.439Z,1326.00
2023-05-22T06:19:41.427Z,1346.00
2023-05-22T06:20:41.647Z,1360.00
2023-05-22T06:21:41.459Z,1384.00
2023-05-22T06:22:41.487Z,1402.00
2023-05-22T06:23:41.474Z,1425.00
2023-05-22T06:24:41.440Z,1460.00
2023-05-22T06:25:41.457Z,1471.00
2023-05-22T06:26:41.463Z,1493.00
2023-05-22T06:27:41.438Z,1522.00
2023-05-22T06:28:41.435Z,1539.00
2023-05-22T06:29:41.436Z,1567.00
2023-05-22T06:30:41.527Z,1593.00
2023-05-22T06:31:41.557Z,1610.00
2023-05-22T06:32:41.777Z,1623.00
2023-05-22T06:33:41.673Z,1643.00
2023-05-22T06:34:41.719Z,1653.00
2023-05-22T06:35:41.796Z,1666.00
2023-05-22T06:36:41.825Z,1678.00
2023-05-22T06:37:41.896Z,1694.00
2023-05-22T06:38:41.959Z,1741.00
2023-05-22T06:39:42.033Z,1748.00
2023-05-22T06:40:42.252Z,1752.00
2023-05-22T06:41:42.145Z,1760.00
2023-05-22T06:42:42.155Z,1771.00
2023-05-22T06:43:42.217Z,1792.00
2023-05-22T06:44:42.304Z,1820.00
2023-05-22T06:45:42.362Z,1851.00
2023-05-22T06:46:42.366Z,1888.00
2023-05-22T06:47:42.481Z,1913.00
2023-05-22T06:48:42.434Z,1925.00
2023-05-22T06:49:42.498Z,1935.00
2023-05-22T06:50:42.523Z,1945.00
2023-05-22T06:51:42.576Z,1950.00
2023-05-22T06:52:42.630Z,1800.00
2023-05-22T06:53:42.654Z,1800.00
2023-05-22T06:54:42.655Z,1569.00
2023-05-22T06:55:42.707Z,1383.00
2023-05-22T06:56:42.748Z,1281.00
2023-05-22T06:57:42.797Z,1404.00
2023-05-22T06:58:42.818Z,1433.00
2023-05-22T06:59:42.880Z,1447.00
2023-05-22T07:00:42.952Z,1461.00
2023-05-22T07:01:42.960Z,1469.00
2023-05-22T07:02:43.100Z,1481.00
2023-05-22T07:03:43.061Z,1495.00
2023-05-22T07:04:43.121Z,1506.00
2023-05-22T07:05:43.139Z,1511.00
2023-05-22T07:07:32.087Z,1574.00
2023-05-22T07:08:31.841Z,1578.00
2023-05-22T07:09:31.847Z,1582.00
2023-05-22T07:10:31.867Z,1592.00
2023-05-22T07:11:31.832Z,1600.00
2023-05-22T07:12:31.830Z,1601.00
2023-05-22T07:13:31.850Z,1603.00
2023-05-22T07:14:31.856Z,1598.00
2023-05-22T07:15:31.873Z,1594.00
2023-05-22T07:16:31.922Z,1586.00
2023-05-22T07:17:31.979Z,1582.00
2023-05-22T07:18:31.959Z,1581.00
2023-05-22T07:19:32.047Z,1591.00
2023-05-22T07:20:32.003Z,1608.00
2023-05-22T07:21:32.007Z,1686.00
2023-05-22T07:22:32.032Z,1716.00
2023-05-22T07:23:32.044Z,1741.00
2023-05-22T07:24:32.063Z,1806.00
2023-05-22T07:25:32.041Z,1829.00
2023-05-22T07:26:32.072Z,1853.00
2023-05-22T07:27:32.070Z,1874.00
2023-05-22T07:28:32.150Z,1905.00
2023-05-22T07:29:32.099Z,1938.00
2023-05-22T07:30:32.077Z,1961.00
2023-05-22T07:31:32.158Z,1989.00
2023-05-22T07:32:32.262Z,2016.00
2023-05-22T07:33:32.098Z,2037.00
2023-05-22T07:34:32.088Z,2079.00
2023-05-22T07:35:32.089Z,2111.00
2023-05-22T07:36:32.104Z,2132.00
2023-05-22T07:37:32.578Z,2149.00
2023-05-22T07:38:32.095Z,2169.00
2023-05-22T07:39:32.090Z,2187.00
2023-05-22T07:40:32.095Z,2205.00
2023-05-22T07:41:32.079Z,2221.00
2023-05-22T07:42:32.076Z,2233.00
2023-05-22T07:43:32.115Z,2257.00
2023-05-22T07:44:32.109Z,2326.00
2023-05-22T07:45:32.187Z,2345.00
2023-05-22T07:46:32.204Z,2368.00
2023-05-22T07:47:32.279Z,2381.00
2023-05-22T07:48:32.294Z,2382.00
2023-05-22T07:49:32.313Z,2383.00
2023-05-22T07:50:32.359Z,2379.00
2023-05-22T07:51:32.429Z,2377.00
2023-05-22T07:52:32.488Z,2378.00
2023-05-22T07:53:32.456Z,2380.00
2023-05-22T07:54:32.470Z,2379.00
2023-05-22T07:55:32.474Z,2380.00
2023-05-22T07:56:32.470Z,2380.00
2023-05-22T07:57:32.484Z,2377.00
2023-05-22T07:58:32.467Z,2375.00
2023-05-22T07:59:32.456Z,2368.00
2023-05-22T08:00:32.460Z,2362.00
2023-05-22T08:01:32.465Z,2356.00
2023-05-22T08:02:32.861Z,2355.00
2023-05-22T08:03:32.623Z,2353.00
2023-05-22T08:04:32.613Z,2350.00
2023-05-22T08:05:32.557Z,2344.00
2023-05-22T08:06:32.585Z,2344.00
2023-05-22T08:07:32.652Z,2344.00
2023-05-22T08:08:32.592Z,2339.00
2023-05-22T08:09:32.621Z,2338.00
2023-05-22T08:10:46.369Z,2334.00
2023-05-22T08:11:33.633Z,2329.00
2023-05-22T08:12:32.615Z,2327.00
2023-05-22T08:13:32.616Z,2322.00
2023-05-22T08:14:32.638Z,2318.00
2023-05-22T08:15:32.576Z,2307.00
2023-05-22T08:16:32.633Z,2300.00
2023-05-22T08:17:32.611Z,2296.00
2023-05-22T08:18:32.548Z,2293.00
2023-05-22T08:19:32.639Z,2288.00
2023-05-22T08:20:32.600Z,2284.00
2023-05-22T08:21:32.570Z,2281.00
2023-05-22T08:22:32.533Z,2276.00
2023-05-22T08:23:32.631Z,2271.00
2023-05-22T08:24:32.669Z,2267.00
2023-05-22T08:25:32.702Z,2263.00
2023-05-22T08:26:32.807Z,2261.00
2023-05-22T08:27:32.830Z,2262.00
2023-05-22T08:28:32.874Z,2261.00
2023-05-22T08:29:32.948Z,2253.00
2023-05-22T08:30:33.020Z,2247.00
2023-05-22T08:31:33.124Z,2245.00
2023-05-22T08:32:33.181Z,2243.00
2023-05-22T08:33:33.205Z,2241.00
2023-05-22T08:34:33.231Z,2234.00
2023-05-22T08:35:33.330Z,2231.00
2023-05-22T08:36:33.350Z,2227.00
2023-05-22T08:37:33.416Z,2223.00
2023-05-22T08:38:33.500Z,2217.00
2023-05-22T08:39:33.520Z,2211.00
2023-05-22T08:40:33.606Z,2208.00
2023-05-22T08:41:33.659Z,2206.00
2023-05-22T08:42:33.725Z,2201.00
2023-05-22T08:43:33.784Z,1978.00
2023-05-22T08:44:33.841Z,2028.00
2023-05-22T08:45:33.880Z,2136.00
2023-05-22T08:46:33.941Z,2103.00
2023-05-22T08:47:34.031Z,2069.00
2023-05-22T08:48:34.037Z,2070.00
2023-05-22T08:49:34.100Z,2077.00
2023-05-22T08:50:34.141Z,2069.00
2023-05-22T08:51:34.202Z,2074.00
2023-05-22T08:52:34.215Z,2084.00
2023-05-22T08:53:34.307Z,2163.00
2023-05-22T08:54:34.298Z,2208.00
2023-05-22T08:55:34.504Z,2296.00
2023-05-22T08:56:37.291Z,2303.00
2023-05-22T08:57:35.347Z,2305.00
2023-05-22T08:58:34.310Z,2148.00
2023-05-22T08:59:34.300Z,2140.00
2023-05-22T09:00:34.290Z,2272.00
2023-05-22T09:01:34.323Z,2283.00
2023-05-22T09:02:34.315Z,2327.00
2023-05-22T09:03:34.349Z,2394.00
2023-05-22T09:04:34.275Z,2424.00
2023-05-22T09:05:34.298Z,2497.00
2023-05-22T09:06:34.247Z,2512.00
2023-05-22T09:07:34.274Z,2530.00
2023-05-22T09:08:34.227Z,2548.00
2023-05-22T09:09:34.243Z,2565.00
2023-05-22T09:10:34.219Z,2587.00
2023-05-22T09:11:34.393Z,2656.00
2023-05-22T09:12:34.263Z,2665.00
2023-05-22T09:13:34.204Z,2688.00
2023-05-22T09:14:34.207Z,2709.00
2023-05-22T09:15:34.174Z,2735.00
2023-05-22T09:16:34.278Z,2762.00
2023-05-22T09:17:34.279Z,2787.00
2023-05-22T09:18:34.331Z,2814.00
2023-05-22T09:19:34.427Z,2839.00
2023-05-22T09:20:34.400Z,2857.00
2023-05-22T09:21:34.460Z,2874.00
2023-05-22T09:22:34.515Z,2898.00
2023-05-22T09:23:34.569Z,2913.00
2023-05-22T09:24:34.800Z,2934.00
2023-05-22T09:25:34.688Z,2963.00
2023-05-22T09:26:34.765Z,2995.00
2023-05-22T09:27:34.825Z,3032.00
2023-05-22T09:28:34.881Z,3053.00
2023-05-22T09:29:34.938Z,3072.00
2023-05-22T09:30:34.964Z,3091.00
2023-05-22T09:31:35.120Z,3117.00
2023-05-22T09:32:35.149Z,3152.00
2023-05-22T09:33:35.131Z,3181.00
2023-05-22T09:34:35.177Z,3197.00
2023-05-22T09:35:35.253Z,3219.00
2023-05-22T09:36:35.266Z,3245.00
2023-05-22T09:37:35.637Z,3282.00
2023-05-22T09:38:35.361Z,3301.00
2023-05-22T09:39:35.516Z,3314.00
2023-05-22T09:40:35.440Z,3334.00
2023-05-22T09:41:35.522Z,3353.00
2023-05-22T09:42:35.561Z,3389.00
2023-05-22T09:43:35.785Z,3415.00
2023-05-22T09:44:35.601Z,3431.00
2023-05-22T09:45:35.650Z,3448.00
2023-05-22T09:46:35.788Z,3465.00
2023-05-22T09:47:35.810Z,3438.00
2023-05-22T09:48:35.763Z,3388.00
2023-05-22T09:49:35.827Z,3277.00
2023-05-22T09:50:35.820Z,3290.00
2023-05-22T09:51:35.845Z,3322.00
2023-05-22T09:52:35.927Z,3347.00
2023-05-22T09:53:35.947Z,3359.00
2023-05-22T09:54:36.017Z,3365.00
2023-05-22T09:55:36.058Z,3360.00
2023-05-22T09:56:39.950Z,3352.00
2023-05-22T09:57:36.122Z,3340.00
2023-05-22T09:58:36.089Z,3333.00
2023-05-22T09:59:36.097Z,3316.00
2023-05-22T10:00:36.130Z,3309.00
2023-05-22T10:01:36.109Z,3295.00
2023-05-22T10:02:36.109Z,3282.00
2023-05-22T10:03:36.059Z,3268.00
2023-05-22T10:04:36.073Z,3259.00
2023-05-22T10:05:36.048Z,3249.00
2023-05-22T10:06:36.042Z,3237.00
2023-05-22T10:07:36.045Z,3226.00
2023-05-22T10:08:36.016Z,3219.00
2023-05-22T10:09:36.039Z,3211.00
2023-05-22T10:10:36.011Z,3207.00
2023-05-22T10:11:35.996Z,3205.00
2023-05-22T10:12:35.964Z,3192.00
2023-05-22T10:13:35.992Z,3188.00
2023-05-22T10:14:36.022Z,3180.00
2023-05-22T10:15:36.069Z,3172.00
2023-05-22T10:16:36.021Z,3168.00
2023-05-22T10:17:35.983Z,3160.00
2023-05-22T10:18:35.942Z,3155.00
2023-05-22T10:19:37.146Z,3154.00
2023-05-22T10:20:36.102Z,3158.00
2023-05-22T10:21:36.055Z,3160.00
2023-05-22T10:22:36.039Z,3157.00
2023-05-22T10:23:36.064Z,3159.00
2023-05-22T10:24:36.035Z,3158.00
2023-05-22T10:25:36.104Z,3153.00
2023-05-22T10:26:36.082Z,3151.00
2023-05-22T10:27:36.063Z,3146.00
2023-05-22T10:28:36.095Z,3138.00
2023-05-22T10:29:36.081Z,3130.00
2023-05-22T10:30:36.118Z,3124.00
2023-05-22T10:31:36.677Z,3116.00
2023-05-22T10:32:36.183Z,3105.00
2023-05-22T10:33:36.185Z,3098.00
2023-05-22T10:34:36.177Z,3090.00
2023-05-22T10:35:36.181Z,3085.00
2023-05-22T10:36:36.246Z,3086.00
2023-05-22T10:37:36.215Z,3084.00
2023-05-22T10:38:36.259Z,3080.00
2023-05-22T10:39:36.288Z,3077.00
2023-05-22T10:40:36.426Z,3075.00
2023-05-22T10:41:36.319Z,3072.00
2023-05-22T10:42:36.321Z,3063.00
2023-05-22T10:43:36.325Z,3060.00
2023-05-22T10:44:36.392Z,3054.00
2023-05-22T10:45:36.446Z,3051.00
2023-05-22T10:46:36.428Z,3051.00
2023-05-22T10:47:36.588Z,3050.00
2023-05-22T10:48:36.465Z,3030.00
2023-05-22T10:49:36.477Z,3021.00
2023-05-22T10:50:36.563Z,3016.00
2023-05-22T10:51:36.542Z,3006.00
2023-05-22T10:52:36.600Z,3002.00
2023-05-22T10:53:36.659Z,2994.00
2023-05-22T10:54:36.625Z,2983.00
2023-05-22T10:55:36.665Z,2972.00
2023-05-22T10:56:36.689Z,2957.00
2023-05-22T10:57:36.717Z,2953.00
2023-05-22T10:58:36.752Z,2949.00
2023-05-22T10:59:36.778Z,2940.00
2023-05-22T11:00:36.834Z,2932.00
2023-05-22T11:01:36.875Z,2929.00
2023-05-22T11:02:36.993Z,2928.00
2023-05-22T11:03:37.053Z,2920.00
2023-05-22T11:04:37.005Z,2903.00
2023-05-22T11:05:36.992Z,2900.00
2023-05-22T11:06:37.034Z,2900.00
2023-05-22T11:07:37.095Z,2893.00
2023-05-22T11:08:37.118Z,2891.00
2023-05-22T11:09:37.130Z,2890.00
2023-05-22T11:10:37.219Z,2888.00
2023-05-22T11:11:37.220Z,2881.00
2023-05-22T11:12:37.297Z,2876.00
2023-05-22T11:13:37.279Z,2865.00
2023-05-22T11:14:37.310Z,2859.00
2023-05-22T11:15:37.382Z,2856.00
2023-05-22T11:16:37.496Z,2852.00
2023-05-22T11:17:37.476Z,2849.00
2023-05-22T11:18:37.500Z,2838.00
2023-05-22T11:19:37.561Z,2832.00
2023-05-22T11:20:37.758Z,2828.00
2023-05-22T11:21:37.625Z,2823.00
2023-05-22T11:22:37.710Z,2816.00
2023-05-22T11:23:37.761Z,2809.00
2023-05-22T11:24:37.794Z,2800.00
2023-05-22T11:25:37.856Z,2799.00
2023-05-22T11:26:37.972Z,2794.00
2023-05-22T11:27:37.958Z,2791.00
2023-05-22T11:28:37.979Z,2788.00
2023-05-22T11:29:38.051Z,2780.00
2023-05-22T11:30:38.440Z,2770.00
2023-05-22T11:31:38.229Z,2765.00
2023-05-22T11:32:38.202Z,2758.00
2023-05-22T11:33:38.231Z,2760.00
2023-05-22T11:34:38.265Z,2755.00
2023-05-22T11:35:38.406Z,2750.00
2023-05-22T11:36:38.390Z,2745.00
2023-05-22T11:37:38.421Z,2743.00
2023-05-22T11:38:38.451Z,2737.00
2023-05-22T11:39:38.508Z,2729.00
2023-05-22T11:40:38.836Z,2730.00
2023-05-22T11:41:38.627Z,2734.00
2023-05-22T11:42:38.695Z,2736.00
2023-05-22T11:43:38.697Z,2724.00
2023-05-22T11:44:38.759Z,2711.00
2023-05-22T11:45:38.780Z,2693.00
2023-05-22T11:46:38.901Z,2677.00
2023-05-22T11:47:38.970Z,2667.00
2023-05-22T11:48:38.931Z,2666.00
2023-05-22T11:49:39.009Z,2663.00
2023-05-22T11:50:42.273Z,2658.00
2023-05-22T11:51:39.147Z,2652.00
2023-05-22T11:52:39.037Z,2650.00
2023-05-22T11:53:39.044Z,2648.00
2023-05-22T11:54:39.213Z,2643.00
2023-05-22T11:55:39.051Z,2639.00
2023-05-22T11:56:39.031Z,2635.00
2023-05-22T11:57:38.998Z,2627.00
2023-05-22T11:58:39.019Z,2624.00
2023-05-22T11:59:38.988Z,2618.00
2023-05-22T12:00:39.288Z,2618.00
2023-05-22T12:01:38.955Z,2614.00
2023-05-22T12:02:39.068Z,2610.00
2023-05-22T12:03:39.040Z,2603.00
2023-05-22T12:04:38.936Z,2601.00
2023-05-22T12:05:38.996Z,2597.00
2023-05-22T12:06:38.957Z,2591.00
2023-05-22T12:07:39.013Z,2586.00
2023-05-22T12:08:38.921Z,2580.00
2023-05-22T12:09:38.896Z,2577.00
2023-05-22T12:10:39.050Z,2573.00
2023-05-22T12:11:38.876Z,2565.00
2023-05-22T12:12:38.914Z,2554.00
2023-05-22T12:13:38.897Z,2550.00
2023-05-22T12:14:39.757Z,2544.00
2023-05-22T12:15:38.888Z,2545.00
2023-05-22T12:16:38.907Z,2540.00
2023-05-22T12:17:38.924Z,2539.00